createdAt,value
2022-12-01T00:03:50.346Z,76.92
2022-12-01T00:09:16.500Z,77.11
2022-12-01T00:14:22.556Z,77.04
2022-12-01T00:19:26.946Z,76.88
2022-12-01T00:24:29.286Z,76.63
2022-12-01T00:29:31.576Z,76.85
2022-12-01T00:34:34.791Z,76.97
2022-12-01T00:39:37.072Z,77.14
2022-12-01T00:44:39.780Z,77.07
2022-12-01T00:49:44.982Z,77.09
2022-12-01T00:54:47.633Z,76.96
2022-12-01T00:59:50.157Z,77.19
2022-12-01T01:04:52.818Z,77.17
2022-12-01T01:09:55.008Z,77.18
2022-12-01T01:14:57.514Z,77.23
2022-12-01T01:19:59.789Z,77.43
2022-12-01T01:25:02.280Z,77.57
2022-12-01T01:30:05.902Z,77.61
2022-12-01T01:35:08.300Z,77.42
2022-12-01T01:40:11.298Z,77.65
2022-12-01T01:45:24.286Z,77.61
2022-12-01T01:50:28.979Z,77.46
2022-12-01T01:55:35.775Z,77.54
2022-12-01T02:00:44.440Z,77.48
2022-12-01T02:05:47.316Z,77.01
2022-12-01T02:11:49.205Z,76.18
2022-12-01T02:17:10.378Z,76.17
2022-12-01T02:22:52.167Z,76.15
2022-12-01T02:28:21.167Z,76.04
2022-12-01T02:33:39.443Z,76.00
2022-12-01T02:39:31.382Z,76.02
2022-12-01T02:44:43.344Z,76.32
2022-12-01T02:49:52.791Z,76.48
2022-12-01T02:54:56.581Z,76.51
2022-12-01T03:00:00.688Z,76.79
2022-12-01T03:05:28.712Z,76.89
2022-12-01T03:10:49.935Z,77.08
2022-12-01T03:16:11.312Z,77.29
2022-12-01T03:21:40.396Z,77.39
2022-12-01T03:26:49.176Z,77.11
2022-12-01T03:31:59.695Z,77.15
2022-12-01T03:37:10.397Z,77.19
2022-12-01T03:42:27.035Z,77.14
2022-12-01T03:47:32.070Z,77.29
2022-12-01T03:52:56.992Z,77.52
2022-12-01T03:58:17.515Z,77.93
2022-12-01T04:03:25.062Z,78.31
2022-12-01T04:08:28.034Z,78.51
2022-12-01T04:13:30.386Z,78.53
2022-12-01T04:18:32.500Z,78.62
2022-12-01T04:23:53.834Z,78.70
2022-12-01T04:28:56.122Z,79.00
2022-12-01T04:33:59.959Z,79.22
2022-12-01T04:39:03.606Z,79.61
2022-12-01T04:44:05.861Z,79.71
2022-12-01T04:49:08.584Z,79.77
2022-12-01T04:54:11.461Z,79.86
2022-12-01T04:59:14.164Z,80.09
2022-12-01T05:04:16.487Z,80.33
2022-12-01T05:09:20.782Z,80.56
2022-12-01T05:14:23.383Z,80.83
2022-12-01T05:19:45.445Z,81.17
2022-12-01T05:24:47.923Z,81.19
2022-12-01T05:29:50.382Z,81.21
2022-12-01T05:34:53.114Z,81.49
2022-12-01T05:39:55.403Z,81.75
2022-12-01T05:44:57.694Z,82.07
2022-12-01T05:50:05.255Z,82.25
2022-12-01T05:55:09.377Z,82.35
2022-12-01T06:00:13.895Z,82.36
2022-12-01T06:05:16.473Z,82.39
2022-12-01T06:10:19.174Z,82.25
2022-12-01T06:15:21.668Z,82.34
2022-12-01T06:20:24.211Z,82.54
2022-12-01T06:25:26.485Z,82.61
2022-12-01T06:30:29.257Z,82.57
2022-12-01T06:35:31.747Z,82.42
2022-12-01T06:40:34.135Z,82.46
2022-12-01T06:45:36.404Z,82.55
2022-12-01T06:50:38.610Z,82.67
2022-12-01T06:55:41.105Z,82.77
2022-12-01T07:00:46.433Z,82.79
2022-12-01T07:06:01.498Z,82.75
2022-12-01T07:11:12.143Z,82.40
2022-12-01T07:16:14.551Z,82.31
2022-12-01T07:21:17.023Z,82.57
2022-12-01T07:26:19.420Z,82.92
2022-12-01T07:31:22.033Z,83.09
2022-12-01T07:36:24.398Z,83.11
2022-12-01T07:41:26.997Z,83.09
2022-12-01T07:46:30.280Z,82.90
2022-12-01T07:51:34.857Z,82.83
2022-12-01T07:56:37.469Z,82.93
2022-12-01T08:01:44.264Z,82.93
2022-12-01T08:06:47.464Z,83.06
2022-12-01T08:11:49.841Z,83.07
2022-12-01T08:16:52.337Z,83.01
2022-12-01T08:21:54.522Z,83.02
2022-12-01T08:26:56.914Z,83.08
2022-12-01T08:31:59.220Z,83.10
2022-12-01T08:37:01.693Z,83.17
2022-12-01T08:42:03.975Z,83.28
2022-12-01T08:47:06.478Z,83.30
2022-12-01T08:52:08.876Z,83.15
2022-12-01T08:57:12.079Z,83.03
2022-12-01T09:02:16.454Z,83.21
2022-12-01T09:07:26.165Z,83.37
2022-12-01T09:12:30.220Z,83.29
2022-12-01T09:17:32.551Z,83.10
2022-12-01T09:22:34.988Z,82.96
2022-12-01T09:27:37.480Z,82.89
2022-12-01T09:32:39.873Z,82.74
2022-12-01T09:37:42.205Z,82.62
2022-12-01T09:42:47.469Z,82.61
2022-12-01T09:47:49.914Z,82.42
2022-12-01T09:53:08.280Z,82.25
2022-12-01T09:58:20.341Z,82.04
2022-12-01T10:03:47.962Z,81.96
2022-12-01T10:09:32.563Z,81.92
2022-12-01T10:14:37.654Z,81.93
2022-12-01T10:20:18.189Z,81.43
2022-12-01T10:25:28.483Z,81.21
2022-12-01T10:30:32.453Z,81.00
2022-12-01T10:35:36.753Z,80.98
2022-12-01T10:40:42.125Z,80.89
2022-12-01T10:45:45.241Z,80.66
2022-12-01T10:51:14.745Z,80.64
2022-12-01T10:56:21.193Z,80.54
2022-12-01T11:01:34.323Z,80.53
2022-12-01T11:06:37.804Z,80.61
2022-12-01T11:11:41.009Z,80.49
2022-12-01T11:16:47.847Z,80.61
2022-12-01T11:21:55.449Z,80.61
2022-12-01T11:27:00.442Z,80.57
2022-12-01T11:32:27.779Z,80.58
2022-12-01T11:37:50.470Z,80.56
2022-12-01T11:43:06.254Z,80.69
2022-12-01T11:48:20.779Z,80.69
2022-12-01T11:53:34.584Z,80.79
2022-12-01T11:58:36.824Z,80.86
2022-12-01T12:04:15.863Z,80.83
2022-12-01T12:09:43.520Z,80.57
2022-12-01T12:15:12.510Z,80.48
2022-12-01T12:20:57.398Z,80.54
2022-12-01T12:26:24.684Z,80.68
2022-12-01T12:32:10.754Z,80.71
2022-12-01T12:37:34.144Z,80.71
2022-12-01T12:43:18.414Z,80.68
2022-12-01T12:49:03.545Z,80.67
2022-12-01T12:54:12.502Z,80.68
2022-12-01T12:59:21.042Z,80.69
2022-12-01T13:04:40.515Z,80.85
2022-12-01T13:09:52.320Z,80.82
2022-12-01T13:15:21.362Z,80.78
2022-12-01T13:20:29.409Z,80.88
2022-12-01T13:25:39.887Z,81.00
2022-12-01T13:31:06.667Z,81.11
2022-12-01T13:36:44.991Z,81.20
2022-12-01T13:41:39.345Z,81.30
2022-12-01T13:46:42.296Z,81.54
2022-12-01T13:52:23.043Z,81.79
2022-12-01T13:57:31.347Z,82.00
2022-12-01T14:02:36.131Z,82.21
2022-12-01T14:07:40.116Z,82.35
2022-12-01T14:12:45.741Z,82.36
2022-12-01T14:18:01.393Z,82.36
2022-12-01T14:23:13.539Z,82.29
2022-12-01T14:28:17.924Z,82.21
2022-12-01T14:33:39.179Z,82.24
2022-12-01T14:38:45.947Z,82.33
2022-12-01T14:44:06.363Z,82.57
2022-12-01T14:49:31.349Z,82.64
2022-12-01T14:54:49.209Z,82.53
2022-12-01T15:00:16.646Z,82.46
2022-12-01T15:05:28.655Z,82.50
2022-12-01T15:10:36.735Z,82.66
2022-12-01T15:16:00.391Z,82.21
2022-12-01T15:21:33.486Z,81.89
2022-12-01T15:26:48.361Z,81.71
2022-12-01T15:32:01.091Z,81.83
2022-12-01T15:37:11.430Z,81.88
2022-12-01T15:42:27.661Z,81.72
2022-12-01T15:47:47.068Z,81.75
2022-12-01T15:52:50.915Z,81.86
2022-12-01T15:57:56.239Z,81.67
2022-12-01T16:03:02.091Z,81.44
2022-12-01T16:08:35.292Z,81.37
2022-12-01T16:13:55.219Z,81.10
2022-12-01T16:19:20.789Z,81.04
2022-12-01T16:24:35.649Z,80.98
2022-12-01T16:29:59.118Z,80.77
2022-12-01T16:35:04.307Z,80.73
2022-12-01T16:40:09.586Z,80.74
2022-12-01T16:45:16.363Z,80.65
2022-12-01T16:50:22.943Z,80.52
2022-12-01T16:55:51.056Z,80.89
2022-12-01T17:00:56.201Z,80.95
2022-12-01T17:06:02.788Z,80.95
2022-12-01T17:11:07.634Z,80.83
2022-12-01T17:16:17.998Z,80.96
2022-12-01T17:21:22.519Z,80.71
2022-12-01T17:26:28.740Z,80.47
2022-12-01T17:31:33.238Z,80.08
2022-12-01T17:36:38.727Z,79.90
2022-12-01T17:41:45.835Z,79.78
2022-12-01T17:46:51.327Z,79.86
2022-12-01T17:51:57.076Z,79.97
2022-12-01T17:57:04.736Z,79.82
2022-12-01T18:02:14.407Z,79.61
2022-12-01T18:07:18.737Z,79.21
2022-12-01T18:12:22.831Z,78.74
2022-12-01T18:17:29.823Z,78.21
2022-12-01T18:22:35.481Z,78.21
2022-12-01T18:27:41.320Z,77.99
2022-12-01T18:32:46.271Z,77.72
2022-12-01T18:37:50.909Z,77.46
2022-12-01T18:42:59.634Z,77.51
2022-12-01T18:48:11.081Z,77.54
2022-12-01T18:53:19.722Z,77.35
2022-12-01T18:58:27.310Z,77.37
2022-12-01T19:03:34.523Z,77.15
2022-12-01T19:08:40.396Z,76.86
2022-12-01T19:13:46.174Z,76.80
2022-12-01T19:18:56.240Z,76.73
2022-12-01T19:24:04.248Z,76.36
2022-12-01T19:29:17.461Z,76.17
2022-12-01T19:34:24.344Z,76.23
2022-12-01T19:39:29.552Z,76.13
2022-12-01T19:44:36.320Z,75.59
2022-12-01T19:49:43.040Z,75.29
2022-12-01T19:54:56.107Z,75.10
2022-12-01T20:00:02.697Z,75.13
2022-12-01T20:05:10.777Z,74.90
2022-12-01T20:10:20.389Z,75.11
2022-12-01T20:15:26.955Z,74.68
2022-12-01T20:20:34.860Z,74.92
2022-12-01T20:25:40.748Z,75.33
2022-12-01T20:30:45.135Z,75.61
2022-12-01T20:35:53.467Z,75.57
2022-12-01T20:40:59.229Z,75.25
2022-12-01T20:46:06.725Z,75.28
2022-12-01T20:51:14.233Z,75.10
2022-12-01T20:56:19.255Z,74.96
2022-12-01T21:01:23.994Z,75.01
2022-12-01T21:06:29.573Z,75.12
2022-12-01T21:12:09.803Z,74.79
2022-12-01T21:18:01.564Z,74.60
2022-12-01T21:23:17.886Z,74.56
2022-12-01T21:28:26.726Z,74.99
2022-12-01T21:33:37.037Z,74.67
2022-12-01T21:38:43.698Z,74.71
2022-12-01T21:43:48.225Z,74.62
2022-12-01T21:48:52.678Z,74.11
2022-12-01T21:53:57.973Z,74.25
2022-12-01T21:59:24.049Z,74.25
2022-12-01T22:04:33.475Z,74.11
2022-12-01T22:09:37.308Z,74.13
2022-12-01T22:14:40.204Z,74.18
2022-12-01T22:19:57.521Z,74.19
2022-12-01T22:25:22.739Z,74.34
2022-12-01T22:30:25.423Z,74.39
2022-12-01T22:35:43.077Z,74.43
2022-12-01T22:40:48.238Z,74.51
2022-12-01T22:46:00.360Z,74.67
2022-12-01T22:51:27.921Z,74.61
2022-12-01T22:56:45.274Z,74.49
2022-12-01T23:02:01.825Z,74.43
2022-12-01T23:07:27.947Z,74.19
2022-12-01T23:12:33.984Z,74.17
2022-12-01T23:17:40.227Z,74.29
2022-12-01T23:22:42.798Z,74.21
2022-12-01T23:27:49.576Z,74.10
2022-12-01T23:33:29.055Z,73.53
2022-12-01T23:38:42.318Z,73.90
2022-12-01T23:43:46.294Z,74.10
2022-12-01T23:48:53.935Z,73.89
2022-12-01T23:54:00.535Z,73.86
2022-12-01T23:59:02.926Z,73.83
